sensor_id;sensor_type;location;lat;lon;timestamp;temperature;humidity
44305;DHT22;30019;50.576;8.568;2022-09-03T00:01:12;13.90;92.90
44305;DHT22;30019;50.576;8.568;2022-09-03T00:03:51;13.90;92.80
44305;DHT22;30019;50.576;8.568;2022-09-03T00:06:25;13.90;92.90
44305;DHT22;30019;50.576;8.568;2022-09-03T00:11:57;14.00;93.40
44305;DHT22;30019;50.576;8.568;2022-09-03T00:14:42;13.90;93.00
44305;DHT22;30019;50.576;8.568;2022-09-03T00:17:14;13.90;93.20
44305;DHT22;30019;50.576;8.568;2022-09-03T00:19:52;13.90;93.10
44305;DHT22;30019;50.576;8.568;2022-09-03T00:22:36;13.90;93.10
44305;DHT22;30019;50.576;8.568;2022-09-03T00:25:08;13.90;93.30
44305;DHT22;30019;50.576;8.568;2022-09-03T00:27:39;13.90;93.40
44305;DHT22;30019;50.576;8.568;2022-09-03T00:30:13;13.90;93.40
44305;DHT22;30019;50.576;8.568;2022-09-03T00:32:44;13.80;93.40
44305;DHT22;30019;50.576;8.568;2022-09-03T00:37:50;13.80;93.60
44305;DHT22;30019;50.576;8.568;2022-09-03T00:51:43;13.70;94.50
44305;DHT22;30019;50.576;8.568;2022-09-03T00:54:18;13.70;94.60
44305;DHT22;30019;50.576;8.568;2022-09-03T00:57:11;13.70;94.60
44305;DHT22;30019;50.576;8.568;2022-09-03T01:00:13;13.60;94.80
44305;DHT22;30019;50.576;8.568;2022-09-03T01:03:05;13.60;95.00
44305;DHT22;30019;50.576;8.568;2022-09-03T01:09:02;13.50;95.20
44305;DHT22;30019;50.576;8.568;2022-09-03T01:14:37;13.50;95.60
44305;DHT22;30019;50.576;8.568;2022-09-03T01:31:21;13.30;97.40
44305;DHT22;30019;50.576;8.568;2022-09-03T01:37:04;13.20;97.90
44305;DHT22;30019;50.576;8.568;2022-09-03T01:53:33;13.00;98.50
44305;DHT22;30019;50.576;8.568;2022-09-03T01:56:24;13.00;98.60
44305;DHT22;30019;50.576;8.568;2022-09-03T01:59:01;13.00;98.60
44305;DHT22;30019;50.576;8.568;2022-09-03T02:01:40;12.90;98.70
44305;DHT22;30019;50.576;8.568;2022-09-03T02:04:21;12.90;98.70
44305;DHT22;30019;50.576;8.568;2022-09-03T02:06:49;12.80;99.00
44305;DHT22;30019;50.576;8.568;2022-09-03T02:09:17;12.90;98.90
44305;DHT22;30019;50.576;8.568;2022-09-03T02:11:48;12.80;99.00
44305;DHT22;30019;50.576;8.568;2022-09-03T02:14:15;12.80;99.00
44305;DHT22;30019;50.576;8.568;2022-09-03T02:16:40;12.80;99.30
44305;DHT22;30019;50.576;8.568;2022-09-03T02:19:11;12.80;99.50
44305;DHT22;30019;50.576;8.568;2022-09-03T02:21:41;12.80;99.40
44305;DHT22;30019;50.576;8.568;2022-09-03T02:24:09;12.70;99.60
44305;DHT22;30019;50.576;8.568;2022-09-03T02:26:35;12.70;99.70
44305;DHT22;30019;50.576;8.568;2022-09-03T02:29:02;12.70;99.90
44305;DHT22;30019;50.576;8.568;2022-09-03T02:31:28;12.70;99.80
44305;DHT22;30019;50.576;8.568;2022-09-03T02:33:55;12.70;99.90
44305;DHT22;30019;50.576;8.568;2022-09-03T02:36:35;12.70;99.90
44305;DHT22;30019;50.576;8.568;2022-09-03T02:39:02;12.70;99.90
44305;DHT22;30019;50.576;8.568;2022-09-03T02:41:28;12.60;99.90
44305;DHT22;30019;50.576;8.568;2022-09-03T02:46:37;12.50;99.90
44305;DHT22;30019;50.576;8.568;2022-09-03T02:49:04;12.50;99.90
44305;DHT22;30019;50.576;8.568;2022-09-03T02:51:39;12.60;99.90
44305;DHT22;30019;50.576;8.568;2022-09-03T02:54:04;12.60;99.90
44305;DHT22;30019;50.576;8.568;2022-09-03T02:56:31;12.50;99.90
44305;DHT22;30019;50.576;8.568;2022-09-03T02:58:56;12.50;99.90
44305;DHT22;30019;50.576;8.568;2022-09-03T03:01:22;12.50;99.90
44305;DHT22;30019;50.576;8.568;2022-09-03T03:03:48;12.50;99.90
44305;DHT22;30019;50.576;8.568;2022-09-03T03:06:14;12.50;99.90
44305;DHT22;30019;50.576;8.568;2022-09-03T03:08:40;12.50;99.90
44305;DHT22;30019;50.576;8.568;2022-09-03T03:11:06;12.40;99.90
44305;DHT22;30019;50.576;8.568;2022-09-03T03:13:32;12.40;99.90
44305;DHT22;30019;50.576;8.568;2022-09-03T03:16:00;12.40;99.90
44305;DHT22;30019;50.576;8.568;2022-09-03T03:18:26;12.50;99.90
44305;DHT22;30019;50.576;8.568;2022-09-03T03:20:52;12.50;99.90
44305;DHT22;30019;50.576;8.568;2022-09-03T03:23:19;12.50;99.90
44305;DHT22;30019;50.576;8.568;2022-09-03T03:25:44;12.40;99.90
44305;DHT22;30019;50.576;8.568;2022-09-03T03:28:10;12.30;99.90
44305;DHT22;30019;50.576;8.568;2022-09-03T03:30:38;12.30;99.90
44305;DHT22;30019;50.576;8.568;2022-09-03T03:33:05;12.30;99.90
44305;DHT22;30019;50.576;8.568;2022-09-03T03:35:31;12.20;99.90
44305;DHT22;30019;50.576;8.568;2022-09-03T03:37:59;12.20;99.90
44305;DHT22;30019;50.576;8.568;2022-09-03T03:40:25;12.20;99.90
44305;DHT22;30019;50.576;8.568;2022-09-03T03:42:51;12.10;99.90
44305;DHT22;30019;50.576;8.568;2022-09-03T03:45:17;12.10;99.90
44305;DHT22;30019;50.576;8.568;2022-09-03T03:47:43;12.10;99.90
44305;DHT22;30019;50.576;8.568;2022-09-03T03:50:09;12.10;99.90
44305;DHT22;30019;50.576;8.568;2022-09-03T03:52:34;12.10;99.90
44305;DHT22;30019;50.576;8.568;2022-09-03T03:55:00;12.10;99.90
44305;DHT22;30019;50.576;8.568;2022-09-03T03:57:29;12.10;99.90
44305;DHT22;30019;50.576;8.568;2022-09-03T03:59:55;12.10;99.90
44305;DHT22;30019;50.576;8.568;2022-09-03T04:02:20;12.10;99.90
44305;DHT22;30019;50.576;8.568;2022-09-03T04:04:46;12.10;99.90
44305;DHT22;30019;50.576;8.568;2022-09-03T04:07:12;12.10;99.90
44305;DHT22;30019;50.576;8.568;2022-09-03T04:09:37;12.00;99.90
44305;DHT22;30019;50.576;8.568;2022-09-03T04:12:03;12.00;99.90
44305;DHT22;30019;50.576;8.568;2022-09-03T04:14:33;12.00;99.90
44305;DHT22;30019;50.576;8.568;2022-09-03T04:16:59;12.00;99.90
44305;DHT22;30019;50.576;8.568;2022-09-03T04:19:25;12.00;99.90
44305;DHT22;30019;50.576;8.568;2022-09-03T04:21:52;11.90;99.90
44305;DHT22;30019;50.576;8.568;2022-09-03T04:24:18;12.00;99.90
44305;DHT22;30019;50.576;8.568;2022-09-03T04:26:44;12.00;99.90
44305;DHT22;30019;50.576;8.568;2022-09-03T04:29:09;12.10;99.90
44305;DHT22;30019;50.576;8.568;2022-09-03T04:31:37;12.10;99.90
44305;DHT22;30019;50.576;8.568;2022-09-03T04:34:03;12.10;99.90
44305;DHT22;30019;50.576;8.568;2022-09-03T04:36:31;12.10;99.90
44305;DHT22;30019;50.576;8.568;2022-09-03T04:38:59;12.10;99.90
44305;DHT22;30019;50.576;8.568;2022-09-03T04:41:27;12.10;99.90
44305;DHT22;30019;50.576;8.568;2022-09-03T04:43:55;12.00;99.90
44305;DHT22;30019;50.576;8.568;2022-09-03T04:46:23;11.90;99.90
44305;DHT22;30019;50.576;8.568;2022-09-03T04:48:51;12.00;99.90
44305;DHT22;30019;50.576;8.568;2022-09-03T04:51:19;12.00;99.90
44305;DHT22;30019;50.576;8.568;2022-09-03T04:53:47;12.10;99.90
44305;DHT22;30019;50.576;8.568;2022-09-03T04:56:16;12.10;99.90
44305;DHT22;30019;50.576;8.568;2022-09-03T04:58:43;12.10;99.90
44305;DHT22;30019;50.576;8.568;2022-09-03T05:01:19;12.10;99.90
44305;DHT22;30019;50.576;8.568;2022-09-03T05:03:45;12.10;99.90
44305;DHT22;30019;50.576;8.568;2022-09-03T05:06:11;12.10;99.90
44305;DHT22;30019;50.576;8.568;2022-09-03T05:08:38;12.10;99.90
44305;DHT22;30019;50.576;8.568;2022-09-03T05:11:05;12.20;99.90
44305;DHT22;30019;50.576;8.568;2022-09-03T05:13:32;12.20;99.90
44305;DHT22;30019;50.576;8.568;2022-09-03T05:15:59;12.20;99.90
44305;DHT22;30019;50.576;8.568;2022-09-03T05:18:25;12.30;99.90
44305;DHT22;30019;50.576;8.568;2022-09-03T05:21:01;12.40;99.90
44305;DHT22;30019;50.576;8.568;2022-09-03T05:23:27;12.40;99.90
44305;DHT22;30019;50.576;8.568;2022-09-03T05:25:56;12.50;99.90
44305;DHT22;30019;50.576;8.568;2022-09-03T05:28:23;12.60;99.90
44305;DHT22;30019;50.576;8.568;2022-09-03T05:31:01;12.70;99.90
44305;DHT22;30019;50.576;8.568;2022-09-03T05:33:27;12.80;99.90
44305;DHT22;30019;50.576;8.568;2022-09-03T05:35:54;12.90;99.90
44305;DHT22;30019;50.576;8.568;2022-09-03T05:38:20;13.00;99.90
44305;DHT22;30019;50.576;8.568;2022-09-03T05:40:45;13.10;99.90
44305;DHT22;30019;50.576;8.568;2022-09-03T05:43:11;13.20;99.90
44305;DHT22;30019;50.576;8.568;2022-09-03T05:45:36;13.40;99.90
44305;DHT22;30019;50.576;8.568;2022-09-03T05:48:02;13.40;99.90
44305;DHT22;30019;50.576;8.568;2022-09-03T05:50:28;13.40;99.90
44305;DHT22;30019;50.576;8.568;2022-09-03T05:52:53;13.50;99.90
44305;DHT22;30019;50.576;8.568;2022-09-03T05:55:19;13.50;99.90
44305;DHT22;30019;50.576;8.568;2022-09-03T05:57:44;13.60;99.90
44305;DHT22;30019;50.576;8.568;2022-09-03T06:00:15;13.60;99.90
44305;DHT22;30019;50.576;8.568;2022-09-03T06:02:49;13.70;99.90
44305;DHT22;30019;50.576;8.568;2022-09-03T06:05:15;13.80;99.90
44305;DHT22;30019;50.576;8.568;2022-09-03T06:07:41;13.80;99.90
44305;DHT22;30019;50.576;8.568;2022-09-03T06:10:07;14.00;99.90
44305;DHT22;30019;50.576;8.568;2022-09-03T06:12:33;14.10;99.90
44305;DHT22;30019;50.576;8.568;2022-09-03T06:14:59;14.10;99.90
44305;DHT22;30019;50.576;8.568;2022-09-03T06:17:24;14.10;99.90
44305;DHT22;30019;50.576;8.568;2022-09-03T06:19:50;14.10;99.90
44305;DHT22;30019;50.576;8.568;2022-09-03T06:22:15;14.10;99.90
44305;DHT22;30019;50.576;8.568;2022-09-03T06:24:41;14.10;99.90
44305;DHT22;30019;50.576;8.568;2022-09-03T06:27:07;14.20;99.90
44305;DHT22;30019;50.576;8.568;2022-09-03T06:29:32;14.10;99.90
44305;DHT22;30019;50.576;8.568;2022-09-03T06:31:59;14.10;99.90
44305;DHT22;30019;50.576;8.568;2022-09-03T06:34:28;14.20;99.90
44305;DHT22;30019;50.576;8.568;2022-09-03T06:36:53;14.20;99.90
44305;DHT22;30019;50.576;8.568;2022-09-03T06:39:19;14.20;99.90
44305;DHT22;30019;50.576;8.568;2022-09-03T06:41:45;14.40;99.90
44305;DHT22;30019;50.576;8.568;2022-09-03T06:44:16;14.40;99.90
44305;DHT22;30019;50.576;8.568;2022-09-03T06:46:41;14.50;99.90
44305;DHT22;30019;50.576;8.568;2022-09-03T06:49:08;14.60;99.90
44305;DHT22;30019;50.576;8.568;2022-09-03T06:51:34;14.70;99.90
44305;DHT22;30019;50.576;8.568;2022-09-03T06:54:02;14.70;99.90
44305;DHT22;30019;50.576;8.568;2022-09-03T06:56:28;14.70;99.90
44305;DHT22;30019;50.576;8.568;2022-09-03T06:58:56;14.80;99.90
44305;DHT22;30019;50.576;8.568;2022-09-03T07:01:26;14.90;99.90
44305;DHT22;30019;50.576;8.568;2022-09-03T07:03:54;15.00;99.90
44305;DHT22;30019;50.576;8.568;2022-09-03T07:06:22;15.00;99.90
44305;DHT22;30019;50.576;8.568;2022-09-03T07:08:47;15.00;99.90
44305;DHT22;30019;50.576;8.568;2022-09-03T07:11:16;15.10;99.90
44305;DHT22;30019;50.576;8.568;2022-09-03T07:13:47;15.20;99.90
44305;DHT22;30019;50.576;8.568;2022-09-03T07:16:18;15.30;99.90
44305;DHT22;30019;50.576;8.568;2022-09-03T07:18:45;15.20;99.90
44305;DHT22;30019;50.576;8.568;2022-09-03T07:21:16;15.40;99.90
44305;DHT22;30019;50.576;8.568;2022-09-03T07:23:42;15.30;99.40
44305;DHT22;30019;50.576;8.568;2022-09-03T07:26:14;15.30;99.40
44305;DHT22;30019;50.576;8.568;2022-09-03T07:28:41;15.30;99.90
44305;DHT22;30019;50.576;8.568;2022-09-03T07:31:13;15.30;99.90
44305;DHT22;30019;50.576;8.568;2022-09-03T07:33:43;15.40;99.90
44305;DHT22;30019;50.576;8.568;2022-09-03T07:36:10;15.50;99.70
44305;DHT22;30019;50.576;8.568;2022-09-03T07:38:37;15.60;99.90
44305;DHT22;30019;50.576;8.568;2022-09-03T07:41:07;15.70;99.60
44305;DHT22;30019;50.576;8.568;2022-09-03T07:43:38;15.80;98.70
44305;DHT22;30019;50.576;8.568;2022-09-03T07:46:05;16.00;99.20
44305;DHT22;30019;50.576;8.568;2022-09-03T07:48:32;16.30;98.60
44305;DHT22;30019;50.576;8.568;2022-09-03T07:50:58;16.50;97.90
44305;DHT22;30019;50.576;8.568;2022-09-03T07:53:28;16.70;97.10
44305;DHT22;30019;50.576;8.568;2022-09-03T07:56:04;16.80;96.40
44305;DHT22;30019;50.576;8.568;2022-09-03T07:58:31;17.10;96.50
44305;DHT22;30019;50.576;8.568;2022-09-03T08:00:57;17.30;96.90
44305;DHT22;30019;50.576;8.568;2022-09-03T08:03:23;17.40;95.60
44305;DHT22;30019;50.576;8.568;2022-09-03T08:05:49;17.40;95.20
44305;DHT22;30019;50.576;8.568;2022-09-03T08:08:15;17.40;94.80
44305;DHT22;30019;50.576;8.568;2022-09-03T08:10:42;17.40;93.90
44305;DHT22;30019;50.576;8.568;2022-09-03T08:13:07;17.40;93.90
44305;DHT22;30019;50.576;8.568;2022-09-03T08:15:35;17.60;93.20
44305;DHT22;30019;50.576;8.568;2022-09-03T08:18:01;17.50;93.30
44305;DHT22;30019;50.576;8.568;2022-09-03T08:20:27;17.60;93.40
44305;DHT22;30019;50.576;8.568;2022-09-03T08:23:00;17.80;93.20
44305;DHT22;30019;50.576;8.568;2022-09-03T08:25:26;17.80;92.90
44305;DHT22;30019;50.576;8.568;2022-09-03T08:27:52;17.90;92.30
44305;DHT22;30019;50.576;8.568;2022-09-03T08:30:18;17.90;92.50
44305;DHT22;30019;50.576;8.568;2022-09-03T08:32:45;17.90;91.90
44305;DHT22;30019;50.576;8.568;2022-09-03T08:35:11;18.00;92.10
44305;DHT22;30019;50.576;8.568;2022-09-03T08:37:37;18.10;91.70
44305;DHT22;30019;50.576;8.568;2022-09-03T08:40:04;18.10;92.50
44305;DHT22;30019;50.576;8.568;2022-09-03T08:42:46;18.00;92.20
44305;DHT22;30019;50.576;8.568;2022-09-03T08:45:18;17.90;93.10
44305;DHT22;30019;50.576;8.568;2022-09-03T08:47:51;17.80;93.30
44305;DHT22;30019;50.576;8.568;2022-09-03T08:50:25;17.80;93.70
44305;DHT22;30019;50.576;8.568;2022-09-03T08:55:59;17.60;93.40
44305;DHT22;30019;50.576;8.568;2022-09-03T08:58:29;17.60;93.30
44305;DHT22;30019;50.576;8.568;2022-09-03T09:07:27;17.80;94.10
44305;DHT22;30019;50.576;8.568;2022-09-03T09:10:21;17.90;93.40
44305;DHT22;30019;50.576;8.568;2022-09-03T09:13:45;17.90;93.60
44305;DHT22;30019;50.576;8.568;2022-09-03T09:19:02;18.10;92.90
44305;DHT22;30019;50.576;8.568;2022-09-03T09:21:39;18.30;92.70
44305;DHT22;30019;50.576;8.568;2022-09-03T09:24:25;18.50;92.40
44305;DHT22;30019;50.576;8.568;2022-09-03T09:26:58;18.60;92.20
44305;DHT22;30019;50.576;8.568;2022-09-03T09:29:27;18.50;91.40
44305;DHT22;30019;50.576;8.568;2022-09-03T09:31:54;18.60;92.20
44305;DHT22;30019;50.576;8.568;2022-09-03T09:34:20;18.50;92.20
44305;DHT22;30019;50.576;8.568;2022-09-03T09:36:48;18.50;92.40
44305;DHT22;30019;50.576;8.568;2022-09-03T09:39:15;18.40;92.10
44305;DHT22;30019;50.576;8.568;2022-09-03T09:41:41;18.30;92.40
44305;DHT22;30019;50.576;8.568;2022-09-03T09:44:17;18.50;93.00
44305;DHT22;30019;50.576;8.568;2022-09-03T09:46:44;18.60;92.20
44305;DHT22;30019;50.576;8.568;2022-09-03T09:49:30;18.50;92.20
44305;DHT22;30019;50.576;8.568;2022-09-03T09:52:23;18.50;92.60
44305;DHT22;30019;50.576;8.568;2022-09-03T09:54:51;18.60;92.40
44305;DHT22;30019;50.576;8.568;2022-09-03T09:57:24;18.70;92.50
44305;DHT22;30019;50.576;8.568;2022-09-03T10:00:08;18.60;92.20
44305;DHT22;30019;50.576;8.568;2022-09-03T10:02:36;18.40;93.10
44305;DHT22;30019;50.576;8.568;2022-09-03T10:05:13;18.50;93.10
44305;DHT22;30019;50.576;8.568;2022-09-03T10:07:40;18.60;92.50
44305;DHT22;30019;50.576;8.568;2022-09-03T10:10:17;18.70;93.10
44305;DHT22;30019;50.576;8.568;2022-09-03T10:12:50;19.10;92.20
44305;DHT22;30019;50.576;8.568;2022-09-03T10:15:47;19.40;91.50
44305;DHT22;30019;50.576;8.568;2022-09-03T10:21:17;19.40;91.80
44305;DHT22;30019;50.576;8.568;2022-09-03T10:26:47;20.10;90.50
44305;DHT22;30019;50.576;8.568;2022-09-03T10:29:17;20.20;89.10
44305;DHT22;30019;50.576;8.568;2022-09-03T10:50:52;20.20;91.50
44305;DHT22;30019;50.576;8.568;2022-09-03T10:56:43;19.80;92.30
44305;DHT22;30019;50.576;8.568;2022-09-03T10:59:24;19.50;93.30
44305;DHT22;30019;50.576;8.568;2022-09-03T11:04:52;19.30;94.20
44305;DHT22;30019;50.576;8.568;2022-09-03T11:07:24;19.20;94.30
44305;DHT22;30019;50.576;8.568;2022-09-03T11:09:56;19.10;94.30
44305;DHT22;30019;50.576;8.568;2022-09-03T11:13:13;18.90;94.80
44305;DHT22;30019;50.576;8.568;2022-09-03T11:15:36;18.80;95.50
44305;DHT22;30019;50.576;8.568;2022-09-03T11:18:26;18.70;94.60
44305;DHT22;30019;50.576;8.568;2022-09-03T11:20:56;18.60;95.50
44305;DHT22;30019;50.576;8.568;2022-09-03T11:23:27;18.70;95.20
44305;DHT22;30019;50.576;8.568;2022-09-03T11:25:57;18.80;94.70
44305;DHT22;30019;50.576;8.568;2022-09-03T11:36:50;19.30;94.30
44305;DHT22;30019;50.576;8.568;2022-09-03T11:39:34;19.50;93.60
44305;DHT22;30019;50.576;8.568;2022-09-03T11:42:40;19.80;93.40
44305;DHT22;30019;50.576;8.568;2022-09-03T11:47:54;20.20;92.80
44305;DHT22;30019;50.576;8.568;2022-09-03T11:50:24;20.40;92.90
44305;DHT22;30019;50.576;8.568;2022-09-03T11:53:37;20.40;92.20
44305;DHT22;30019;50.576;8.568;2022-09-03T11:55:53;20.30;92.30
44305;DHT22;30019;50.576;8.568;2022-09-03T11:58:25;20.40;92.30
44305;DHT22;30019;50.576;8.568;2022-09-03T12:00:54;20.70;92.10
44305;DHT22;30019;50.576;8.568;2022-09-03T12:03:26;21.00;91.30
44305;DHT22;30019;50.576;8.568;2022-09-03T12:09:22;21.50;90.30
44305;DHT22;30019;50.576;8.568;2022-09-03T12:19:53;22.50;87.30
44305;DHT22;30019;50.576;8.568;2022-09-03T12:22:22;22.60;86.60
44305;DHT22;30019;50.576;8.568;2022-09-03T12:24:48;22.70;86.60
44305;DHT22;30019;50.576;8.568;2022-09-03T12:27:19;23.10;85.00
44305;DHT22;30019;50.576;8.568;2022-09-03T12:29:49;22.90;84.80
44305;DHT22;30019;50.576;8.568;2022-09-03T12:32:15;22.80;84.70
44305;DHT22;30019;50.576;8.568;2022-09-03T12:34:41;22.70;86.00
44305;DHT22;30019;50.576;8.568;2022-09-03T12:37:19;22.80;85.10
44305;DHT22;30019;50.576;8.568;2022-09-03T12:39:50;22.90;85.20
44305;DHT22;30019;50.576;8.568;2022-09-03T12:42:22;23.00;84.60
44305;DHT22;30019;50.576;8.568;2022-09-03T12:44:48;22.90;84.60
44305;DHT22;30019;50.576;8.568;2022-09-03T12:47:16;22.90;85.30
44305;DHT22;30019;50.576;8.568;2022-09-03T12:49:44;23.10;86.00
44305;DHT22;30019;50.576;8.568;2022-09-03T12:52:32;23.40;84.40
44305;DHT22;30019;50.576;8.568;2022-09-03T12:55:00;23.20;83.80
44305;DHT22;30019;50.576;8.568;2022-09-03T12:57:40;23.30;84.00
44305;DHT22;30019;50.576;8.568;2022-09-03T13:00:09;23.50;84.70
44305;DHT22;30019;50.576;8.568;2022-09-03T13:02:49;23.90;83.40
44305;DHT22;30019;50.576;8.568;2022-09-03T13:07:58;24.60;81.20
44305;DHT22;30019;50.576;8.568;2022-09-03T13:10:37;24.90;79.50
44305;DHT22;30019;50.576;8.568;2022-09-03T13:27:18;23.50;83.80
44305;DHT22;30019;50.576;8.568;2022-09-03T13:32:27;23.40;85.10
44305;DHT22;30019;50.576;8.568;2022-09-03T13:35:06;23.30;85.50
44305;DHT22;30019;50.576;8.568;2022-09-03T13:37:46;23.20;85.00
44305;DHT22;30019;50.576;8.568;2022-09-03T13:46:16;23.80;83.10
44305;DHT22;30019;50.576;8.568;2022-09-03T13:48:47;23.90;82.60
44305;DHT22;30019;50.576;8.568;2022-09-03T13:51:51;24.10;83.30
44305;DHT22;30019;50.576;8.568;2022-09-03T13:54:23;24.70;82.30
44305;DHT22;30019;50.576;8.568;2022-09-03T13:57:00;25.40;79.60
44305;DHT22;30019;50.576;8.568;2022-09-03T13:59:43;26.20;77.70
44305;DHT22;30019;50.576;8.568;2022-09-03T14:02:27;26.30;76.60
44305;DHT22;30019;50.576;8.568;2022-09-03T14:10:53;24.90;81.00
44305;DHT22;30019;50.576;8.568;2022-09-03T14:18:53;25.20;80.10
44305;DHT22;30019;50.576;8.568;2022-09-03T14:26:30;24.90;82.00
44305;DHT22;30019;50.576;8.568;2022-09-03T14:32:14;24.70;81.30
44305;DHT22;30019;50.576;8.568;2022-09-03T14:35:11;24.40;81.40
44305;DHT22;30019;50.576;8.568;2022-09-03T14:40:20;24.30;82.60
44305;DHT22;30019;50.576;8.568;2022-09-03T14:43:09;24.30;82.40
44305;DHT22;30019;50.576;8.568;2022-09-03T14:48:48;25.20;79.60
44305;DHT22;30019;50.576;8.568;2022-09-03T14:51:22;25.10;78.30
44305;DHT22;30019;50.576;8.568;2022-09-03T15:02:36;23.80;81.70
44305;DHT22;30019;50.576;8.568;2022-09-03T15:10:31;24.70;80.00
44305;DHT22;30019;50.576;8.568;2022-09-03T15:13:26;24.90;77.70
44305;DHT22;30019;50.576;8.568;2022-09-03T15:25:21;24.20;81.40
44305;DHT22;30019;50.576;8.568;2022-09-03T15:33:51;24.20;82.30
44305;DHT22;30019;50.576;8.568;2022-09-03T15:36:20;23.90;82.70
44305;DHT22;30019;50.576;8.568;2022-09-03T15:38:49;23.90;83.50
44305;DHT22;30019;50.576;8.568;2022-09-03T15:44:18;23.80;83.10
44305;DHT22;30019;50.576;8.568;2022-09-03T15:46:59;23.60;82.40
44305;DHT22;30019;50.576;8.568;2022-09-03T15:50:03;23.60;83.50
44305;DHT22;30019;50.576;8.568;2022-09-03T15:55:37;23.20;84.40
44305;DHT22;30019;50.576;8.568;2022-09-03T16:00:56;23.20;84.80
44305;DHT22;30019;50.576;8.568;2022-09-03T16:03:48;23.10;84.60
44305;DHT22;30019;50.576;8.568;2022-09-03T16:07:15;23.10;85.50
44305;DHT22;30019;50.576;8.568;2022-09-03T16:12:33;23.20;85.20
44305;DHT22;30019;50.576;8.568;2022-09-03T16:15:22;23.20;83.90
44305;DHT22;30019;50.576;8.568;2022-09-03T16:18:06;23.40;84.50
44305;DHT22;30019;50.576;8.568;2022-09-03T16:20:39;23.50;84.30
44305;DHT22;30019;50.576;8.568;2022-09-03T16:23:09;23.40;83.70
44305;DHT22;30019;50.576;8.568;2022-09-03T16:28:51;23.50;84.20
44305;DHT22;30019;50.576;8.568;2022-09-03T16:42:21;23.20;84.30
44305;DHT22;30019;50.576;8.568;2022-09-03T16:45:12;23.10;84.00
44305;DHT22;30019;50.576;8.568;2022-09-03T16:48:23;23.20;85.10
44305;DHT22;30019;50.576;8.568;2022-09-03T16:52:01;23.20;84.90
44305;DHT22;30019;50.576;8.568;2022-09-03T17:07:35;22.50;86.70
44305;DHT22;30019;50.576;8.568;2022-09-03T17:13:04;22.50;86.70
44305;DHT22;30019;50.576;8.568;2022-09-03T17:15:43;22.40;87.60
44305;DHT22;30019;50.576;8.568;2022-09-03T17:21:17;22.30;89.80
44305;DHT22;30019;50.576;8.568;2022-09-03T17:23:59;22.20;89.40
44305;DHT22;30019;50.576;8.568;2022-09-03T17:29:20;22.10;90.10
44305;DHT22;30019;50.576;8.568;2022-09-03T17:34:48;21.90;90.00
44305;DHT22;30019;50.576;8.568;2022-09-03T17:40:34;21.80;90.80
44305;DHT22;30019;50.576;8.568;2022-09-03T17:50:58;21.30;91.60
44305;DHT22;30019;50.576;8.568;2022-09-03T17:53:48;21.30;92.30
44305;DHT22;30019;50.576;8.568;2022-09-03T17:56:24;21.20;92.50
44305;DHT22;30019;50.576;8.568;2022-09-03T17:59:01;21.10;92.70
44305;DHT22;30019;50.576;8.568;2022-09-03T18:01:34;21.10;92.50
44305;DHT22;30019;50.576;8.568;2022-09-03T18:04:13;21.10;92.70
44305;DHT22;30019;50.576;8.568;2022-09-03T18:09:19;21.00;92.70
44305;DHT22;30019;50.576;8.568;2022-09-03T18:11:52;21.00;92.90
44305;DHT22;30019;50.576;8.568;2022-09-03T18:14:29;20.90;93.00
44305;DHT22;30019;50.576;8.568;2022-09-03T18:17:09;20.90;93.40
44305;DHT22;30019;50.576;8.568;2022-09-03T18:19:49;20.90;93.50
44305;DHT22;30019;50.576;8.568;2022-09-03T18:22:59;20.80;93.30
44305;DHT22;30019;50.576;8.568;2022-09-03T18:25:49;20.50;93.40
44305;DHT22;30019;50.576;8.568;2022-09-03T18:28:40;20.40;93.90
44305;DHT22;30019;50.576;8.568;2022-09-03T18:31:26;20.20;94.20
44305;DHT22;30019;50.576;8.568;2022-09-03T18:34:10;20.10;94.40
44305;DHT22;30019;50.576;8.568;2022-09-03T18:36:57;20.00;94.20
44305;DHT22;30019;50.576;8.568;2022-09-03T18:39:44;19.90;94.30
44305;DHT22;30019;50.576;8.568;2022-09-03T18:49:18;19.40;96.10
44305;DHT22;30019;50.576;8.568;2022-09-03T18:52:20;19.30;95.90
44305;DHT22;30019;50.576;8.568;2022-09-03T18:55:45;19.20;96.20
44305;DHT22;30019;50.576;8.568;2022-09-03T19:01:35;19.00;96.70
44305;DHT22;30019;50.576;8.568;2022-09-03T19:07:46;19.00;97.60
44305;DHT22;30019;50.576;8.568;2022-09-03T19:10:52;18.90;97.20
44305;DHT22;30019;50.576;8.568;2022-09-03T19:13:39;18.70;97.50
44305;DHT22;30019;50.576;8.568;2022-09-03T19:16:53;18.70;97.80
44305;DHT22;30019;50.576;8.568;2022-09-03T19:20:08;18.70;98.00
44305;DHT22;30019;50.576;8.568;2022-09-03T19:22:57;18.70;99.20
44305;DHT22;30019;50.576;8.568;2022-09-03T19:25:41;18.70;99.90
44305;DHT22;30019;50.576;8.568;2022-09-03T19:28:28;18.50;99.90
44305;DHT22;30019;50.576;8.568;2022-09-03T19:44:07;17.90;99.90
44305;DHT22;30019;50.576;8.568;2022-09-03T19:46:57;17.80;99.90
44305;DHT22;30019;50.576;8.568;2022-09-03T19:52:59;17.60;99.90
44305;DHT22;30019;50.576;8.568;2022-09-03T19:55:47;17.60;99.90
44305;DHT22;30019;50.576;8.568;2022-09-03T19:58:34;17.50;99.90
44305;DHT22;30019;50.576;8.568;2022-09-03T20:01:19;17.40;99.90
44305;DHT22;30019;50.576;8.568;2022-09-03T20:04:12;17.40;99.90
44305;DHT22;30019;50.576;8.568;2022-09-03T20:06:59;17.30;99.90
44305;DHT22;30019;50.576;8.568;2022-09-03T20:09:45;17.30;99.90
44305;DHT22;30019;50.576;8.568;2022-09-03T20:12:38;17.40;99.90
44305;DHT22;30019;50.576;8.568;2022-09-03T20:15:06;17.30;99.90
44305;DHT22;30019;50.576;8.568;2022-09-03T20:20:52;17.10;99.90
44305;DHT22;30019;50.576;8.568;2022-09-03T20:23:44;17.10;99.90
44305;DHT22;30019;50.576;8.568;2022-09-03T20:37:12;16.80;99.90
44305;DHT22;30019;50.576;8.568;2022-09-03T20:42:48;16.90;99.90
44305;DHT22;30019;50.576;8.568;2022-09-03T20:45:36;17.00;99.90
44305;DHT22;30019;50.576;8.568;2022-09-03T20:59:23;17.00;99.90
44305;DHT22;30019;50.576;8.568;2022-09-03T21:01:57;16.90;99.90
44305;DHT22;30019;50.576;8.568;2022-09-03T21:07:30;16.80;99.90
44305;DHT22;30019;50.576;8.568;2022-09-03T21:23:44;16.80;99.90
44305;DHT22;30019;50.576;8.568;2022-09-03T21:26:27;16.80;99.90
44305;DHT22;30019;50.576;8.568;2022-09-03T21:31:41;16.80;99.90
44305;DHT22;30019;50.576;8.568;2022-09-03T21:34:28;16.80;99.90
44305;DHT22;30019;50.576;8.568;2022-09-03T21:36:55;16.90;99.90
44305;DHT22;30019;50.576;8.568;2022-09-03T21:41:53;16.80;99.90
44305;DHT22;30019;50.576;8.568;2022-09-03T21:44:40;16.60;99.90
44305;DHT22;30019;50.576;8.568;2022-09-03T21:47:12;16.50;99.90
44305;DHT22;30019;50.576;8.568;2022-09-03T21:50:03;16.40;99.90
44305;DHT22;30019;50.576;8.568;2022-09-03T21:52:45;16.30;99.90
44305;DHT22;30019;50.576;8.568;2022-09-03T21:55:27;16.20;99.90
44305;DHT22;30019;50.576;8.568;2022-09-03T21:58:01;16.10;99.90
44305;DHT22;30019;50.576;8.568;2022-09-03T22:00:28;16.10;99.90